createdAt,value
2022-07-29T01:10:00.207Z,2.60
2022-07-29T01:40:00.296Z,2.50
2022-07-29T02:00:00.206Z,2.90
2022-07-29T02:30:00.173Z,2.40
2022-07-29T03:50:00.163Z,2.40
2022-07-29T04:20:00.178Z,2.20
2022-07-29T04:30:00.170Z,2.20
2022-07-29T04:50:00.167Z,1.80
2022-07-29T05:30:00.200Z,2.60
2022-07-29T05:50:01.861Z,1.90
2022-07-29T06:00:00.237Z,2.40
2022-07-29T06:20:00.239Z,2.40
2022-07-29T06:40:00.159Z,1.80
2022-07-29T07:20:00.178Z,2.00
2022-07-29T07:50:00.147Z,2.80
2022-07-29T08:20:00.173Z,2.50
2022-07-29T08:30:00.202Z,1.90
2022-07-29T09:10:02.786Z,2.10
2022-07-29T09:50:00.652Z,3.20
2022-07-29T10:30:00.162Z,7.10
2022-07-29T10:40:00.169Z,14.90
2022-07-29T11:20:00.172Z,19.00
2022-07-29T11:40:02.521Z,358.10
2022-07-29T12:10:00.203Z,544.00
2022-07-29T12:20:00.208Z,632.80
2022-07-29T13:00:00.187Z,767.40
2022-07-29T13:40:00.340Z,473.00
2022-07-29T14:20:00.212Z,731.60
2022-07-29T15:10:00.212Z,18.10
2022-07-29T16:00:00.165Z,17.80
2022-07-29T16:20:01.381Z,13.90
2022-07-29T16:40:00.458Z,15.20
2022-07-29T17:00:00.404Z,16.30
2022-07-29T17:20:00.177Z,17.20
2022-07-29T17:30:00.184Z,10.90
2022-07-29T18:40:00.161Z,376.90
2022-07-29T19:10:00.201Z,41.70
2022-07-29T19:40:00.177Z,8.70
2022-07-29T19:50:00.173Z,8.20
2022-07-29T20:10:00.170Z,7.40
2022-07-29T20:50:00.202Z,8.20
2022-07-29T21:00:00.218Z,6.20
2022-07-29T21:20:00.145Z,16.70
2022-07-29T21:50:00.164Z,21.70
2022-07-29T22:20:00.184Z,7.00
2022-07-29T22:40:00.186Z,5.30
2022-07-29T23:10:00.190Z,4.20
2022-07-29T23:20:00.967Z,4.50
2022-07-29T23:30:00.167Z,3.80
2022-07-29T23:50:00.187Z,3.90
